Latest Weather Observations for Liawenee

IDT60801

Issued at 11:02 am EDT Monday 18 February 2019 (issued every 10 minutes, with the page automatically refreshed every 10 minutes)

About weather observations | Map of weather stations | Latest weather observations for TAS | Other Formats
Station Details ID: 096033 Name: LIAWENEE Lat: -41.90 Lon: 146.67 Height: 1057.0 m
Data from the previous 72 hours. | See also: Recent months at Liawenee
Date/Time
EDT
Temp
°C
App
Temp
°C
Dew
Point
°C
Rel
Hum
%
Delta-T
°C
Wind Press
QNH
hPa
Press
MSL
hPa
Rain since
9am
mm
Dir  Spd
km/h
Gust
km/h
Spd
kts
Gust
kts
18/11:00am 15.4 8.1 5.6 52 5.0 WNW 33 52 18 28 1002.4 999.9 0.0
18/10:45am 14.8 7.3 6.4 57 4.3 WNW 35 56 19 30 1002.6 1000.0 0.0
18/10:30am 14.7 7.5 7.7 63 3.7 WNW 35 50 19 27 1002.8 1000.3 0.0
18/10:11am 14.3 7.8 9.1 71 2.8 WNW 33 52 18 28 1002.8 1000.3 0.0
18/10:00am 14.0 7.7 9.6 75 2.4 WNW 33 48 18 26 1002.8 1000.3 0.0
18/09:31am 13.5 7.4 9.6 77 2.1 WNW 32 54 17 29 1003.0 1000.5 0.0
18/09:30am 13.4 7.2 9.3 76 2.2 WNW 32 48 17 26 1002.9 1000.4 0.0
18/09:00am 12.9 7.6 11.3 90 0.9 NW 30 56 16 30 1003.3 1000.8 0.0
18/08:34am 12.4 7.8 12.2 99 0.1 NW 28 50 15 27 1003.3 1000.8 0.0
18/08:30am 12.4 8.1 12.2 99 0.1 NW 26 39 14 21 1003.3 1000.8 0.0
18/08:00am 12.4 7.8 12.2 99 0.1 NW 28 50 15 27 1003.6 1001.1 0.0
18/07:30am 12.3 7.7 12.3 100 0.0 NW 28 46 15 25 1003.6 1001.1 0.0
18/07:04am 12.1 7.4 12.1 100 0.0 NW 28 48 15 26 1003.7 1001.2 0.0
18/07:00am 11.9 7.6 11.9 100 0.0 NW 26 41 14 22 1003.6 1001.1 0.0
18/06:30am 11.7 7.7 11.7 100 0.0 NW 24 39 13 21 1003.7 1001.2 0.0
18/06:00am 11.6 7.5 11.6 100 0.0 NW 24 37 13 20 1003.8 1001.3 0.0
18/05:30am 11.6 7.5 11.6 100 0.0 NNW 24 37 13 20 1003.6 1001.1 0.0
18/05:00am 11.3 7.2 11.3 100 0.0 NW 24 37 13 20 1004.0 1001.5 0.0
18/04:41am 11.4 6.5 11.4 100 0.0 NW 28 52 15 28 1003.9 1001.4 0.0
18/04:30am 11.5 7.4 11.5 100 0.0 NW 24 41 13 22 1004.0 1001.5 0.0
18/04:00am 11.2 7.0 11.2 100 0.0 NNW 24 41 13 22 1004.4 1002.0 0.0
18/03:30am 11.5 7.4 11.5 100 0.0 NW 24 39 13 21 1004.9 1002.4 0.0
18/03:00am 11.7 7.5 11.2 97 0.3 NW 24 35 13 19 1005.1 1002.6 0.0
18/02:30am 12.6 8.0 9.8 83 1.5 WNW 24 41 13 22 1005.8 1003.3 0.0
18/02:00am 12.4 8.5 10.8 90 0.9 WNW 22 43 12 23 1006.2 1003.8 0.0
18/01:30am 12.3 7.2 12.0 98 0.2 NW 30 50 16 27 1006.9 1004.5 0.0
18/01:23am 12.2 7.5 12.0 99 0.1 NW 28 50 15 27 1007.0 1004.6 0.0
18/01:00am 12.2 7.9 12.0 99 0.1 NW 26 44 14 24 1007.1 1004.7 0.0
18/12:30am 12.0 7.6 11.8 99 0.1 WNW 26 39 14 21 1007.8 1005.4 0.0
18/12:00am 12.0 7.7 12.0 100 0.0 WNW 26 39 14 21 1007.9 1005.5 0.0
 
Date/Time
EDT
Temp
°C
App
Temp
°C
Dew
Point
°C
Rel
Hum
%
Delta-T
°C
Wind Press
QNH
hPa
Press
MSL
hPa
Rain since
9am
mm
Dir  Spd
km/h
Gust
km/h
Spd
kts
Gust
kts
17/11:30pm 12.2 7.6 12.2 100 0.0 WNW 28 44 15 24 1008.0 1005.6 0.0
17/11:00pm 12.4 7.4 12.2 99 0.1 WNW 30 44 16 24 1008.2 1005.8 0.0
17/10:34pm 12.6 8.0 12.4 99 0.1 WNW 28 46 15 25 1008.5 1006.2 0.0
17/10:30pm 12.5 7.9 12.3 99 0.1 WNW 28 44 15 24 1008.6 1006.3 0.0
17/10:14pm 12.7 8.2 12.5 99 0.1 WNW 28 46 15 25 1008.9 1006.5 0.0
17/10:00pm 12.7 9.7 12.5 99 0.1 NW 20 32 11 17 1008.9 1006.5 0.0
17/09:30pm 13.0 9.5 12.2 95 0.5 NW 22 39 12 21 1009.1 1006.7 0.0
17/09:00pm 13.0 9.9 12.2 95 0.5 NW 20 32 11 17 1009.0 1006.6 0.0
17/08:30pm 13.3 10.5 11.5 89 1.0 NW 17 24 9 13 1009.0 1006.6 0.0
17/08:00pm 14.0 11.1 11.0 82 1.7 WNW 17 30 9 16 1009.0 1006.6 0.0
17/07:30pm 15.0 11.4 10.4 74 2.6 WNW 20 35 11 19 1008.8 1006.4 0.0
17/07:00pm 15.6 11.0 9.7 68 3.2 WNW 24 35 13 19 1008.8 1006.4 0.0
17/06:30pm 15.7 11.2 10.0 69 3.1 WNW 24 35 13 19 1009.0 1006.6 0.0
17/06:00pm 17.1 11.6 9.0 59 4.4 WNW 28 41 15 22 1008.9 1006.5 0.0
17/05:30pm 18.2 11.6 8.7 54 5.2 WNW 33 50 18 27 1008.5 1006.2 0.0
17/05:13pm 18.1 12.4 8.4 53 5.3 WNW 28 48 15 26 1008.6 1006.3 0.0
17/05:00pm 18.3 12.8 9.1 55 5.1 WNW 28 44 15 24 1008.8 1006.4 0.0
17/04:30pm 17.3 12.3 9.5 60 4.3 NW 26 39 14 21 1009.3 1007.0 0.0
17/04:00pm 15.5 10.7 9.0 65 3.5 WNW 24 39 13 21 1009.6 1007.3 0.0
17/03:30pm 16.9 11.9 8.1 56 4.7 WNW 24 35 13 19 1010.4 1008.1 0.0
17/03:00pm 17.8 12.9 8.4 54 5.1 WNW 24 44 13 24 1010.9 1008.5 0.0
17/02:37pm 18.5 12.5 8.5 52 5.5 WNW 30 57 16 31 1010.9 1008.5 0.0
17/02:30pm 17.3 11.4 7.6 53 5.2 WNW 28 39 15 21 1011.1 1008.8 0.0
17/02:00pm 18.0 11.5 8.3 53 5.3 W 32 41 17 22 1011.0 1008.6 0.0
17/01:30pm 16.8 9.4 6.9 52 5.2 WNW 35 46 19 25 1011.5 1009.2 0.0
17/01:11pm 17.8 11.3 6.3 47 6.0 WNW 30 48 16 26 1011.4 1009.1 0.0
17/01:00pm 18.2 11.3 6.4 46 6.2 W 32 44 17 24 1011.4 1009.1 0.0
17/12:35pm 18.0 11.7 5.6 44 6.4 W 28 46 15 25 1011.4 1009.1 0.0
17/12:30pm 18.0 11.6 5.2 43 6.5 W 28 43 15 23 1011.4 1009.1 0.0
17/12:20pm 17.8 11.3 4.7 42 6.6 W 28 50 15 27 1011.5 1009.2 0.0
17/12:00pm 18.2 12.3 5.8 44 6.4 WNW 26 39 14 21 1011.5 1009.2 0.0
17/11:30am 18.3 12.9 4.5 40 7.0 WNW 22 35 12 19 1011.4 1009.1 0.0
17/11:00am 18.8 14.3 6.0 43 6.7 WNW 19 35 10 19 1011.5 1009.2 0.0
17/10:30am 16.1 11.1 4.8 47 5.7 WNW 20 32 11 17 1011.8 1009.4 0.0
17/10:00am 15.5 9.8 4.8 49 5.3 W 24 35 13 19 1012.1 1009.8 0.0
17/09:30am 15.6 11.5 6.3 54 4.8 WNW 17 26 9 14 1012.4 1010.1 0.0
17/09:00am 13.6 10.2 7.6 67 3.1 W 15 22 8 12 1012.5 1010.2 0.0
17/08:30am 10.3 8.7 10.1 99 0.1 WNW 9 11 5 6 1012.5 1010.2 0.0
17/08:00am 6.9 5.0 6.9 100 0.0 ENE 6 9 3 5 1012.5 1010.2 0.0
17/07:30am 4.2 2.9 4.2 100 0.0 CALM 0 0 0 0 1012.5 1010.2 0.0
17/07:00am 1.9 -0.9 1.9 100 0.0 SSW 6 7 3 4 1012.4 1010.1 0.0
17/06:30am 2.2 0.6 2.2 100 0.0 CALM 0 0 0 0 1012.4 1010.1 0.0
17/06:00am 2.4 -0.3 2.4 100 0.0 SW 6 7 3 4 1012.1 1009.8 0.0
17/05:30am 2.6 1.0 2.6 100 0.0 CALM 0 0 0 0 1012.1 1009.8 0.0
17/05:00am 3.3 0.1 3.3 100 0.0 WSW 9 13 5 7 1012.5 1010.2 0.0
17/04:30am 3.5 1.3 3.5 100 0.0 ENE 4 9 2 5 1012.2 1009.9 0.0
17/04:00am 5.3 2.9 5.3 100 0.0 NE 7 9 4 5 1012.6 1010.3 0.0
17/03:30am 4.2 1.6 4.2 100 0.0 E 7 9 4 5 1012.9 1010.6 0.0
17/03:00am 2.4 0.8 2.4 100 0.0 CALM 0 0 0 0 1013.1 1010.8 0.0
17/02:30am 4.7 3.5 4.7 100 0.0 CALM 0 0 0 0 1013.5 1011.3 0.0
17/02:00am 4.1 2.8 4.1 100 0.0 CALM 0 0 0 0 1013.9 1011.6 0.0
17/01:30am 6.4 4.4 6.4 100 0.0 WSW 6 7 3 4 1014.2 1011.9 0.0
17/01:00am 5.6 3.5 5.6 100 0.0 NNW 6 7 3 4 1014.5 1012.3 0.0
17/12:30am 7.1 5.1 7.1 100 0.0 WNW 7 9 4 5 1014.7 1012.5 0.0
17/12:00am 6.9 5.8 6.9 100 0.0 NNE 2 7 1 4 1015.0 1012.7 0.0
 
Date/Time
EDT
Temp
°C
App
Temp
°C
Dew
Point
°C
Rel
Hum
%
Delta-T
°C
Wind Press
QNH
hPa
Press
MSL
hPa
Rain since
9am
mm
Dir  Spd
km/h
Gust
km/h
Spd
kts
Gust
kts
16/11:30pm 7.3 6.7 7.3 100 0.0 CALM 0 0 0 0 1015.3 1013.1 0.0
16/11:00pm 8.7 7.7 8.7 100 0.0 E 4 7 2 4 1015.4 1013.2 0.0
16/10:30pm 10.9 10.1 10.9 100 0.0 WNW 6 9 3 5 1015.9 1013.6 0.0
16/10:00pm 11.2 9.5 11.2 100 0.0 SW 11 15 6 8 1016.1 1013.9 0.0
16/09:30pm 11.6 10.3 11.4 99 0.1 W 9 13 5 7 1015.9 1013.6 0.0
16/09:00pm 12.4 11.0 12.2 99 0.1 NW 11 19 6 10 1015.9 1013.6 0.0
16/08:30pm 12.7 12.1 12.2 97 0.3 NNW 7 13 4 7 1015.7 1013.5 0.0
16/08:00pm 13.2 11.6 11.6 90 0.9 NW 11 20 6 11 1016.1 1013.9 0.0
16/07:30pm 13.9 12.2 11.1 83 1.6 NNW 11 19 6 10 1016.0 1013.7 0.0
16/07:00pm 14.5 12.2 10.3 76 2.3 NNW 13 17 7 9 1016.1 1013.9 0.0
16/06:30pm 15.3 12.5 9.9 70 3.0 NW 15 24 8 13 1016.5 1014.3 0.0
16/06:00pm 16.1 13.7 10.2 68 3.3 NNW 13 20 7 11 1016.2 1014.0 0.0
16/05:30pm 16.1 13.6 9.8 66 3.5 NNW 13 17 7 9 1016.5 1014.3 0.0
16/05:00pm 16.2 13.5 8.9 62 4.0 NNW 13 24 7 13 1016.8 1014.7 0.0
16/04:30pm 16.3 13.7 9.3 63 3.8 N 13 24 7 13 1017.1 1014.9 0.0
16/04:00pm 15.9 12.1 8.9 63 3.8 NNW 19 26 10 14 1017.5 1015.3 0.0
16/03:30pm 16.9 14.3 10.7 67 3.5 NNW 15 30 8 16 1017.7 1015.6 0.0
16/03:00pm 16.4 13.1 9.6 64 3.7 NNW 17 30 9 16 1018.3 1016.1 0.0
16/02:30pm 17.1 13.8 9.5 61 4.2 N 17 30 9 16 1018.6 1016.5 0.0
16/02:00pm 16.8 13.8 10.6 67 3.5 NNW 17 24 9 13 1018.7 1016.6 0.0
16/01:30pm 14.6 11.4 11.4 81 1.8 NW 19 32 10 17 1019.5 1017.4 0.0
16/01:00pm 15.0 11.5 10.2 73 2.6 NNW 19 35 10 19 1019.6 1017.5 0.0
16/12:30pm 15.1 11.5 10.7 75 2.5 N 20 32 11 17 1020.0 1017.8 0.0
16/12:00pm 14.7 11.1 10.7 77 2.2 N 20 32 11 17 1020.2 1018.0 0.0
16/11:30am 14.3 10.0 10.7 79 2.0 N 24 35 13 19 1020.5 1018.4 0.0
16/11:00am 13.1 9.8 11.5 90 0.9 N 20 37 11 20 1020.8 1018.7 0.0
16/10:30am 12.1 9.1 11.9 99 0.1 N 19 32 10 17 1021.2 1019.1 0.0
16/10:00am 11.7 9.3 11.5 99 0.1 N 15 32 8 17 1021.3 1019.2 0.0
16/09:30am 11.7 9.4 11.7 100 0.0 N 15 24 8 13 1021.4 1019.3 0.0
16/09:00am 11.1 8.2 11.1 100 0.0 N 17 32 9 17 1021.4 1019.3 0.0
16/08:30am 11.2 8.3 11.0 99 0.1 N 17 33 9 18 1021.3 1019.2 0.0
16/08:00am 10.8 9.4 10.8 100 0.0 NNW 9 19 5 10 1021.4 1019.3 0.0
16/07:30am 10.4 8.1 10.4 100 0.0 NNE 13 24 7 13 1021.3 1019.2 0.0
16/07:00am 9.9 8.2 9.9 100 0.0 NE 9 22 5 12 1021.3 1019.2 0.0
16/06:30am 9.8 8.5 9.8 100 0.0 NE 7 15 4 8 1021.5 1019.4 0.0
16/06:00am 9.7 7.6 9.7 100 0.0 NNE 11 26 6 14 1021.7 1019.6 0.0
16/05:30am 9.9 7.5 9.9 100 0.0 N 13 24 7 13 1021.8 1019.7 0.0
16/05:00am 9.7 7.2 9.7 100 0.0 NNE 13 22 7 12 1021.9 1019.9 0.0
16/04:30am 9.5 6.9 9.5 100 0.0 NNE 13 26 7 14 1022.6 1020.5 0.0
16/04:00am 9.4 8.0 9.4 100 0.0 E 7 11 4 6 1022.6 1020.5 0.0
16/03:30am 9.5 8.3 9.5 100 0.0 E 6 11 3 6 1022.7 1020.7 0.0
16/03:00am 9.5 6.9 9.5 100 0.0 NE 13 22 7 12 1022.9 1020.9 0.0
16/02:30am 9.7 8.0 9.7 100 0.0 NNE 9 17 5 9 1023.2 1021.1 0.0
16/02:00am 9.8 7.3 9.8 100 0.0 N 13 20 7 11 1023.7 1021.7 0.0
16/01:30am 10.1 7.7 10.1 100 0.0 N 13 17 7 9 1023.8 1021.8 0.0
16/01:00am 10.1 8.5 10.1 100 0.0 N 9 19 5 10 1024.1 1022.0 0.0
16/12:30am 10.1 8.8 10.1 100 0.0 NE 7 11 4 6 1024.3 1022.2 0.0
16/12:00am 10.3 8.7 10.3 100 0.0 NE 9 13 5 7 1024.4 1022.4 0.0
 
Date/Time
EDT
Temp
°C
App
Temp
°C
Dew
Point
°C
Rel
Hum
%
Delta-T
°C
Wind Press
QNH
hPa
Press
MSL
hPa
Rain since
9am
mm
Dir  Spd
km/h
Gust
km/h
Spd
kts
Gust
kts
15/11:30pm 10.3 10.1 10.3 100 0.0 NNE 2 7 1 4 1024.5 1022.5 0.0
15/11:00pm 10.3 9.1 10.3 100 0.0 ESE 7 9 4 5 1024.5 1022.5 0.0
15/10:30pm 11.2 11.2 11.0 99 0.1 N 2 9 1 5 1024.7 1022.7 0.0
15/10:00pm 11.5 10.2 11.3 99 0.1 NE 9 13 5 7 1024.5 1022.5 0.0
15/09:30pm 12.7 11.1 10.1 84 1.4 NNE 9 11 5 6 1024.5 1022.5 0.0
15/09:00pm 13.7 12.1 10.1 79 2.0 N 9 15 5 8 1024.6 1022.6 0.0
15/08:30pm 14.0 12.0 10.2 78 2.1 NNE 11 15 6 8 1024.4 1022.4 0.0
15/08:00pm 14.3 12.3 10.1 76 2.3 N 11 17 6 9 1024.3 1022.2 0.0
15/07:30pm 15.7 13.9 9.6 67 3.3 N 9 13 5 7 1023.9 1021.9 0.0
15/07:00pm 16.1 13.5 9.5 65 3.6 N 13 19 7 10 1023.9 1021.9 0.0
15/06:30pm 16.5 13.1 9.0 61 4.1 NNE 17 24 9 13 1023.9 1021.9 0.0
15/06:00pm 17.3 13.5 9.2 59 4.4 NE 19 26 10 14 1023.8 1021.8 0.0
15/05:30pm 18.1 15.8 8.9 55 5.0 NNE 11 20 6 11 1023.7 1021.7 0.0
15/05:00pm 18.3 15.5 8.6 53 5.3 NNE 13 20 7 11 1023.7 1021.7 0.0
15/04:30pm 19.2 15.7 7.3 46 6.4 NE 15 20 8 11 1023.6 1021.6 0.0
15/04:00pm 19.7 16.2 7.4 45 6.6 ENE 15 24 8 13 1023.7 1021.7 0.0
15/03:30pm 19.0 15.4 6.8 45 6.5 ESE 15 24 8 13 1023.8 1021.8 0.0
15/03:00pm 19.5 16.3 6.9 44 6.7 E 13 19 7 10 1023.9 1021.9 0.0
15/02:30pm 18.5 15.0 7.0 47 6.1 E 15 20 8 11 1023.9 1021.9 0.0
15/02:00pm 18.3 15.5 8.6 53 5.3 ESE 13 20 7 11 1024.2 1022.1 0.0
15/01:30pm 18.0 15.0 5.9 45 6.3 E 11 17 6 9 1024.2 1022.1 0.0
15/01:00pm 16.6 12.9 6.4 51 5.3 E 15 20 8 11 1024.3 1022.2 0.0
15/12:30pm 15.7 14.3 7.2 57 4.4 ESE 4 15 2 8 1024.5 1022.5 0.0
15/12:00pm 15.3 12.4 6.3 55 4.6 S 11 20 6 11 1024.7 1022.7 0.0
15/11:30am 15.5 12.9 7.8 60 4.1 SSW 11 20 6 11 1024.7 1022.7 0.0

Other Formats:

Comma delimited format used in spreadsheet applications
http://www.bom.gov.au/fwo/IDT60801/IDT60801.95959.axf

JavaScript Object Notation format (JSON) in row-major order
http://www.bom.gov.au/fwo/IDT60801/IDT60801.95959.json